Terminal Aerodrome Forecast
Issued by NWS Houston/Galveston, TX

Home | Current Version | Previous Version | Text Only | Print | Product List | Glossary On
Versions: 1 2 3 4 5 6 7 8 9 10 11 12 13 14 15 16 17 18 19 20 21 22 23 24 25 26 27 28 29 30 31 32 33 34 35 36 37 38 39
000
FTUS44 KHGX 222334
TAFGLS
TAF
KGLS 222334Z 2300/2324 12010KT P6SM VCTS FEW015 BKN025CB OVC100
      TEMPO 2300/2301 4SM -TSRA SCT005 OVC020CB
     FM230500 13015KT 6SM -TSRA BR SCT007 OVC015CB
      TEMPO 2306/2308 VRB20G35KT 1SM +TSRA BR OVC007CB
     FM230900 18010KT P6SM BKN025 OVC050
     FM231200 22010KT P6SM SCT050 BKN100
     FM231500 23011KT P6SM SKC=

USA.gov is the U.S. government's official web portal to all federal, state and local government web resources and services.